createdAt,value
2023-01-25T00:00:50.912Z,79.82
2023-01-25T00:01:51.343Z,79.82
2023-01-25T00:02:51.255Z,79.82
2023-01-25T00:03:51.231Z,79.63
2023-01-25T00:04:51.217Z,79.63
2023-01-25T00:05:51.239Z,79.82
2023-01-25T00:06:51.030Z,79.82
2023-01-25T00:07:51.276Z,79.82
2023-01-25T00:08:51.277Z,79.82
2023-01-25T00:09:51.281Z,79.82
2023-01-25T00:10:51.293Z,80
2023-01-25T00:11:51.048Z,80
2023-01-25T00:12:51.329Z,80
2023-01-25T00:13:51.331Z,80
2023-01-25T00:14:51.378Z,80
2023-01-25T00:15:51.423Z,79.91
2023-01-25T00:16:51.516Z,80
2023-01-25T00:17:51.392Z,80
2023-01-25T00:18:51.405Z,80
2023-01-25T00:19:51.466Z,79.72
2023-01-25T00:20:51.180Z,79.72
2023-01-25T00:21:51.473Z,79.91
2023-01-25T00:22:51.226Z,79.82
2023-01-25T00:23:51.576Z,79.82
2023-01-25T00:24:51.228Z,79.82
2023-01-25T00:25:51.501Z,79.63
2023-01-25T00:26:51.525Z,79.82
2023-01-25T00:27:51.517Z,79.82
2023-01-25T00:28:51.546Z,79.82
2023-01-25T00:29:51.572Z,79.91
2023-01-25T00:30:51.579Z,79.82
2023-01-25T00:31:51.797Z,79.82
2023-01-25T00:32:51.503Z,79.82
2023-01-25T00:33:51.617Z,79.82
2023-01-25T00:34:51.944Z,79.82
2023-01-25T00:35:51.634Z,79.82
2023-01-25T00:36:51.640Z,79.72
2023-01-25T00:37:51.661Z,79.82
2023-01-25T00:38:51.438Z,79.82
2023-01-25T00:39:51.536Z,79.82
2023-01-25T00:40:51.702Z,79.82
2023-01-25T00:41:51.707Z,79.91
2023-01-25T00:42:51.732Z,79.82
2023-01-25T00:43:51.753Z,79.82
2023-01-25T00:44:51.508Z,79.82
2023-01-25T00:45:51.910Z,79.82
2023-01-25T00:46:51.801Z,80
2023-01-25T00:47:51.559Z,79.82
2023-01-25T00:48:51.794Z,80
2023-01-25T00:49:51.815Z,80
2023-01-25T00:50:51.583Z,80
2023-01-25T00:51:51.854Z,80
2023-01-25T00:52:51.599Z,80
2023-01-25T00:53:51.876Z,80.29
2023-01-25T00:54:51.919Z,80.19
2023-01-25T00:55:51.900Z,80.38
2023-01-25T00:56:51.913Z,80.29
2023-01-25T00:57:51.674Z,80.29
2023-01-25T00:58:51.677Z,80.1
2023-01-25T00:59:51.950Z,80.38
2023-01-25T01:00:52.048Z,80.38
2023-01-25T01:01:51.973Z,80.29
2023-01-25T01:02:52.031Z,80.48
2023-01-25T01:03:52.005Z,80.19
2023-01-25T01:04:52.234Z,80.1
2023-01-25T01:05:52.032Z,80.29
2023-01-25T01:06:51.785Z,80.19
2023-01-25T01:07:52.064Z,80.19
2023-01-25T01:08:51.809Z,80.29
2023-01-25T01:09:52.085Z,80.19
2023-01-25T01:10:52.170Z,80.19
2023-01-25T01:11:51.852Z,80.19
2023-01-25T01:12:52.131Z,80.29
2023-01-25T01:13:51.893Z,80.48
2023-01-25T01:14:52.148Z,80.29
2023-01-25T01:15:52.162Z,80.19
2023-01-25T01:16:52.419Z,80.1
2023-01-25T01:17:52.207Z,80.1
2023-01-25T01:18:52.228Z,80.1
2023-01-25T01:19:52.217Z,80.29
2023-01-25T01:20:51.973Z,80.19
2023-01-25T01:21:52.250Z,80.19
2023-01-25T01:22:52.254Z,80.1
2023-01-25T01:23:52.435Z,80.1
2023-01-25T01:24:52.284Z,80.19
2023-01-25T01:25:52.297Z,80.19
2023-01-25T01:26:52.420Z,80.19
2023-01-25T01:27:52.324Z,80.29
2023-01-25T01:28:52.102Z,80.29
2023-01-25T01:29:52.363Z,80.29
2023-01-25T01:30:52.360Z,80.29
2023-01-25T01:31:52.674Z,80.19
2023-01-25T01:32:52.728Z,80.1
2023-01-25T01:33:52.146Z,80.38
2023-01-25T01:34:52.650Z,80.29
2023-01-25T01:35:52.174Z,80.1
2023-01-25T01:36:52.448Z,80.19
2023-01-25T01:37:52.309Z,80.29
2023-01-25T01:38:52.481Z,80.19
2023-01-25T01:39:52.496Z,80.19
2023-01-25T01:40:52.492Z,80.29
2023-01-25T01:41:52.508Z,79.82
2023-01-25T01:42:52.287Z,79.91
2023-01-25T01:43:52.549Z,80
2023-01-25T01:44:52.317Z,79.91
2023-01-25T01:45:52.732Z,80.19
2023-01-25T01:46:52.588Z,80
2023-01-25T01:47:52.584Z,80
2023-01-25T01:48:52.603Z,80.19
2023-01-25T01:49:52.629Z,80.19
2023-01-25T01:50:52.660Z,80.19
2023-01-25T01:51:52.650Z,80.19
2023-01-25T01:52:52.659Z,80.38
2023-01-25T01:53:52.671Z,80.38
2023-01-25T01:54:52.693Z,79.91
2023-01-25T01:55:52.696Z,80
2023-01-25T01:56:52.732Z,80.38
2023-01-25T01:57:52.734Z,80
2023-01-25T01:58:52.797Z,79.82
2023-01-25T01:59:52.776Z,80.57
2023-01-25T02:00:52.813Z,80.38
2023-01-25T02:01:52.525Z,79.91
2023-01-25T02:02:52.990Z,79.91
2023-01-25T02:03:52.884Z,80.38
2023-01-25T02:04:52.824Z,80.19
2023-01-25T02:05:52.903Z,80
2023-01-25T02:06:52.857Z,79.91
2023-01-25T02:07:52.696Z,80
2023-01-25T02:08:52.872Z,80
2023-01-25T02:09:52.908Z,80.57
2023-01-25T02:10:52.896Z,80
2023-01-25T02:11:52.920Z,80
2023-01-25T02:12:52.930Z,80
2023-01-25T02:13:52.690Z,79.91
2023-01-25T02:14:52.975Z,80
2023-01-25T02:15:53.105Z,80.38
2023-01-25T02:16:52.980Z,79.82
2023-01-25T02:17:53.010Z,79.91
2023-01-25T02:18:53.023Z,80.38
2023-01-25T02:19:53.023Z,79.91
2023-01-25T02:20:52.861Z,79.91
2023-01-25T02:21:52.780Z,79.82
2023-01-25T02:22:53.096Z,80.57
2023-01-25T02:23:53.124Z,80.38
2023-01-25T02:24:52.821Z,79.91
2023-01-25T02:25:53.101Z,80.57
2023-01-25T02:26:52.847Z,80
2023-01-25T02:27:53.111Z,80.1
2023-01-25T02:28:53.138Z,79.91
2023-01-25T02:29:53.356Z,79.91
2023-01-25T02:30:53.281Z,80.1
2023-01-25T02:31:53.356Z,80.38
2023-01-25T02:32:52.962Z,80.38
2023-01-25T02:33:53.216Z,80.48
2023-01-25T02:34:53.516Z,80.38
2023-01-25T02:35:53.233Z,80.57
2023-01-25T02:36:52.990Z,80.57
2023-01-25T02:37:53.273Z,80.67
2023-01-25T02:38:53.304Z,80.57
2023-01-25T02:39:53.283Z,80.57
2023-01-25T02:40:53.296Z,80.38
2023-01-25T02:41:53.345Z,80.19
2023-01-25T02:42:53.330Z,80.67
2023-01-25T02:43:53.079Z,80.57
2023-01-25T02:44:53.356Z,80.57
2023-01-25T02:45:53.180Z,80.48
2023-01-25T02:46:53.511Z,80.57
2023-01-25T02:47:53.397Z,80.57
2023-01-25T02:48:53.423Z,80.48
2023-01-25T02:49:53.162Z,80.38
2023-01-25T02:50:53.430Z,80.67
2023-01-25T02:51:53.444Z,80.38
2023-01-25T02:52:53.479Z,80.67
2023-01-25T02:53:53.215Z,80.67
2023-01-25T02:54:53.512Z,80.67
2023-01-25T02:55:53.239Z,80.38
2023-01-25T02:56:53.261Z,80.57
2023-01-25T02:57:53.517Z,80.57
2023-01-25T02:58:53.670Z,80.67
2023-01-25T02:59:53.561Z,80.57
2023-01-25T03:00:53.580Z,80.48
2023-01-25T03:01:53.517Z,80.48
2023-01-25T03:02:53.826Z,80.57
2023-01-25T03:03:53.365Z,80.38
2023-01-25T03:04:53.850Z,80.29
2023-01-25T03:05:53.649Z,80.38
2023-01-25T03:06:53.641Z,80.48
2023-01-25T03:07:53.391Z,80.29
2023-01-25T03:08:53.674Z,80.48
2023-01-25T03:09:53.677Z,80.38
2023-01-25T03:10:53.737Z,80.38
2023-01-25T03:11:53.709Z,80.38
2023-01-25T03:12:53.717Z,80.48
2023-01-25T03:13:53.732Z,80.38
2023-01-25T03:14:53.744Z,80.29
2023-01-25T03:15:53.546Z,80.38
2023-01-25T03:16:53.786Z,80.38
2023-01-25T03:17:53.847Z,80.38
2023-01-25T03:18:53.818Z,80.48
2023-01-25T03:19:53.818Z,80.48
2023-01-25T03:20:53.832Z,80.38
2023-01-25T03:21:53.845Z,80.29
2023-01-25T03:22:53.844Z,80.48
2023-01-25T03:23:53.987Z,80.48
2023-01-25T03:24:53.892Z,80.29
2023-01-25T03:25:53.891Z,80.48
2023-01-25T03:26:53.921Z,80.48
2023-01-25T03:27:53.916Z,80.38
2023-01-25T03:28:53.932Z,80.19
2023-01-25T03:29:53.961Z,80.19
2023-01-25T03:30:53.955Z,80.48
2023-01-25T03:31:54.069Z,80.29
2023-01-25T03:32:53.720Z,80.38
2023-01-25T03:33:54.046Z,80.38
2023-01-25T03:34:54.448Z,80.38
2023-01-25T03:35:54.134Z,80.48
2023-01-25T03:36:53.773Z,80.19
2023-01-25T03:37:54.050Z,80.19
2023-01-25T03:38:53.811Z,80.38
2023-01-25T03:39:54.091Z,80.38
2023-01-25T03:40:54.080Z,80.38
2023-01-25T03:41:54.184Z,80.38
2023-01-25T03:42:54.131Z,80.29
2023-01-25T03:43:54.131Z,80.38
2023-01-25T03:44:54.175Z,80.38
2023-01-25T03:45:54.152Z,80.29
2023-01-25T03:46:54.400Z,80.38
2023-01-25T03:47:53.944Z,80.19
2023-01-25T03:48:54.202Z,80.38
2023-01-25T03:49:54.221Z,80.38
2023-01-25T03:50:54.252Z,80.38
2023-01-25T03:51:54.237Z,80.38
2023-01-25T03:52:54.251Z,80.29
2023-01-25T03:53:54.270Z,80.38
2023-01-25T03:54:54.288Z,80.38
2023-01-25T03:55:54.292Z,80.76
2023-01-25T03:56:54.313Z,80.48
2023-01-25T03:57:54.325Z,80.38
2023-01-25T03:58:54.355Z,80.19
2023-01-25T03:59:54.348Z,80.48
2023-01-25T04:00:54.520Z,80.38
2023-01-25T04:01:54.501Z,80.29
2023-01-25T04:02:54.427Z,81.14
2023-01-25T04:03:54.406Z,81.14
2023-01-25T04:04:54.404Z,80.48
2023-01-25T04:05:54.437Z,80.57
2023-01-25T04:06:54.222Z,81.14
2023-01-25T04:07:54.488Z,81.14
2023-01-25T04:08:54.496Z,81.14
2023-01-25T04:09:54.252Z,81.24
2023-01-25T04:10:54.519Z,81.24
2023-01-25T04:11:54.290Z,81.14
2023-01-25T04:12:54.554Z,81.14
2023-01-25T04:13:54.534Z,80.67
2023-01-25T04:14:54.568Z,81.14
2023-01-25T04:15:54.603Z,81.05
2023-01-25T04:16:54.778Z,80.86
2023-01-25T04:17:54.585Z,80.95
2023-01-25T04:18:54.602Z,80.95
2023-01-25T04:19:54.657Z,80.95
2023-01-25T04:20:54.628Z,81.14
2023-01-25T04:21:54.644Z,81.14
2023-01-25T04:22:54.423Z,81.14
2023-01-25T04:23:54.856Z,81.05
2023-01-25T04:24:54.681Z,81.05
2023-01-25T04:25:54.683Z,81.24
2023-01-25T04:26:54.704Z,81.05
2023-01-25T04:27:54.732Z,80.86
2023-01-25T04:28:54.475Z,80.95
2023-01-25T04:29:54.481Z,80.95
2023-01-25T04:30:54.806Z,80.95
2023-01-25T04:31:54.986Z,81.05
2023-01-25T04:32:54.860Z,80.95
2023-01-25T04:33:54.794Z,80.95
2023-01-25T04:34:55.123Z,81.05
2023-01-25T04:35:54.978Z,80.95
2023-01-25T04:36:54.833Z,81.05
2023-01-25T04:37:54.583Z,81.05
2023-01-25T04:38:54.885Z,81.05
2023-01-25T04:39:54.885Z,80.95
2023-01-25T04:40:54.642Z,80.95
2023-01-25T04:41:54.670Z,80.86
2023-01-25T04:42:54.695Z,81.05
2023-01-25T04:43:54.936Z,81.05
2023-01-25T04:44:54.939Z,81.24
2023-01-25T04:45:54.825Z,81.05
2023-01-25T04:46:55.105Z,80.95
2023-01-25T04:47:54.972Z,81.05
2023-01-25T04:48:54.999Z,81.05
2023-01-25T04:49:55.008Z,80.76
2023-01-25T04:50:55.024Z,81.05
2023-01-25T04:51:55.030Z,80.76
2023-01-25T04:52:54.786Z,80.76
2023-01-25T04:53:55.070Z,80.76
2023-01-25T04:54:54.848Z,80.76
2023-01-25T04:55:55.124Z,80.95
2023-01-25T04:56:55.110Z,81.05
2023-01-25T04:57:55.118Z,81.05
2023-01-25T04:58:55.130Z,80.86
2023-01-25T04:59:55.137Z,80.95
2023-01-25T05:00:55.348Z,80.86
2023-01-25T05:01:55.170Z,80.76
2023-01-25T05:02:55.218Z,80.86
2023-01-25T05:03:55.195Z,80.95
2023-01-25T05:04:55.202Z,81.05
2023-01-25T05:05:55.216Z,81.05
2023-01-25T05:06:54.973Z,80.76
2023-01-25T05:07:55.280Z,80.95
2023-01-25T05:08:55.000Z,80.86
2023-01-25T05:09:55.015Z,80.95
2023-01-25T05:10:55.313Z,80.86
2023-01-25T05:11:55.305Z,80.76
2023-01-25T05:12:55.319Z,80.95
2023-01-25T05:13:55.330Z,80.95
2023-01-25T05:14:55.334Z,80.95
2023-01-25T05:15:55.351Z,81.05
2023-01-25T05:16:55.487Z,80.76
2023-01-25T05:17:55.378Z,81.05
2023-01-25T05:18:55.398Z,80.76
2023-01-25T05:19:55.440Z,80.86
2023-01-25T05:20:55.152Z,80.76
2023-01-25T05:21:55.190Z,80.76
2023-01-25T05:22:55.437Z,80.67
2023-01-25T05:23:55.516Z,80.86
2023-01-25T05:24:55.470Z,80.76
2023-01-25T05:25:55.486Z,80.76
2023-01-25T05:26:55.254Z,81.05
2023-01-25T05:27:55.515Z,80.76
2023-01-25T05:28:55.533Z,80.86
2023-01-25T05:29:55.542Z,80.86
2023-01-25T05:30:55.718Z,80.86
2023-01-25T05:31:55.406Z,81.05
2023-01-25T05:32:55.349Z,80.86
2023-01-25T05:33:55.597Z,81.05
2023-01-25T05:34:55.819Z,80.95
2023-01-25T05:35:55.616Z,80.86
2023-01-25T05:36:55.366Z,80.67
2023-01-25T05:37:55.645Z,81.05
2023-01-25T05:38:55.655Z,80.76
2023-01-25T05:39:55.672Z,81.05
2023-01-25T05:40:55.681Z,80.76
2023-01-25T05:41:55.721Z,80.57
2023-01-25T05:42:55.728Z,80.76
2023-01-25T05:43:55.716Z,80.95
2023-01-25T05:44:55.732Z,80.86
2023-01-25T05:45:55.638Z,80.95
2023-01-25T05:46:55.762Z,80.95
2023-01-25T05:47:55.768Z,80.76
2023-01-25T05:48:55.787Z,80.76
2023-01-25T05:49:55.797Z,80.67
2023-01-25T05:50:55.837Z,80.67
2023-01-25T05:51:55.559Z,81.05
2023-01-25T05:52:55.833Z,80.76
2023-01-25T05:53:55.847Z,80.86
2023-01-25T05:54:55.867Z,80.57
2023-01-25T05:55:55.879Z,80.76
2023-01-25T05:56:55.631Z,80.76
2023-01-25T05:57:55.901Z,80.76
2023-01-25T05:58:55.822Z,80.76
2023-01-25T05:59:55.938Z,80.76
2023-01-25T06:00:55.681Z,80.76
2023-01-25T06:01:55.955Z,80.67
2023-01-25T06:02:56.343Z,80.86
2023-01-25T06:03:55.975Z,80.95
2023-01-25T06:04:56.002Z,80.86
2023-01-25T06:05:56.049Z,80.76
2023-01-25T06:06:56.044Z,80.67
2023-01-25T06:07:56.029Z,80.95
2023-01-25T06:08:56.115Z,80.95
2023-01-25T06:09:56.062Z,80.86
2023-01-25T06:10:55.824Z,80.76
2023-01-25T06:11:56.107Z,80.95
2023-01-25T06:12:56.124Z,80.67
2023-01-25T06:13:56.126Z,80.76
2023-01-25T06:14:56.310Z,80.67
2023-01-25T06:15:56.289Z,80.86
2023-01-25T06:16:56.159Z,80.76
2023-01-25T06:17:56.211Z,80.67
2023-01-25T06:18:56.186Z,80.95
2023-01-25T06:19:56.190Z,80.86
2023-01-25T06:20:56.214Z,80.95
2023-01-25T06:21:55.988Z,80.86
2023-01-25T06:22:56.256Z,81.05
2023-01-25T06:23:56.315Z,80.95
2023-01-25T06:24:56.023Z,80.67
2023-01-25T06:25:56.262Z,80.95
2023-01-25T06:26:56.291Z,80.95
2023-01-25T06:27:56.061Z,81.05
2023-01-25T06:28:56.317Z,80.95
2023-01-25T06:29:56.069Z,80.86
2023-01-25T06:30:56.490Z,80.95
2023-01-25T06:31:56.474Z,80.76
2023-01-25T06:32:56.115Z,80.86
2023-01-25T06:33:56.371Z,80.95
2023-01-25T06:34:56.430Z,80.95
2023-01-25T06:35:56.398Z,80.95
2023-01-25T06:36:56.414Z,80.95
2023-01-25T06:37:56.430Z,80.86
2023-01-25T06:38:56.478Z,80.95
2023-01-25T06:39:56.208Z,81.14
2023-01-25T06:40:56.475Z,80.95
2023-01-25T06:41:56.480Z,80.95
2023-01-25T06:42:56.490Z,80.95
2023-01-25T06:43:56.526Z,80.95
2023-01-25T06:44:56.545Z,81.14
2023-01-25T06:45:56.529Z,80.95
2023-01-25T06:46:56.448Z,80.76
2023-01-25T06:47:56.565Z,81.14
2023-01-25T06:48:56.575Z,80.95
2023-01-25T06:49:56.591Z,81.14
2023-01-25T06:50:56.354Z,80.67
2023-01-25T06:51:56.355Z,80.95
2023-01-25T06:52:56.632Z,81.14
2023-01-25T06:53:56.642Z,81.05
2023-01-25T06:54:56.677Z,80.95
2023-01-25T06:55:56.668Z,81.05
2023-01-25T06:56:56.684Z,80.95
2023-01-25T06:57:56.694Z,81.14
2023-01-25T06:58:56.700Z,81.14
2023-01-25T06:59:56.730Z,80.86
2023-01-25T07:00:56.731Z,81.14
2023-01-25T07:01:56.909Z,81.14
2023-01-25T07:02:56.983Z,81.05
2023-01-25T07:03:56.775Z,81.14
2023-01-25T07:04:56.794Z,81.14
2023-01-25T07:05:56.804Z,80.95
2023-01-25T07:06:56.808Z,80.86
2023-01-25T07:07:56.836Z,80.86
2023-01-25T07:08:56.833Z,80.86
2023-01-25T07:09:56.849Z,80.95
2023-01-25T07:10:56.894Z,80.95
2023-01-25T07:11:56.889Z,80.95
2023-01-25T07:12:56.890Z,80.86
2023-01-25T07:13:56.907Z,80.67
2023-01-25T07:14:56.936Z,80.86
2023-01-25T07:15:56.940Z,80.95
2023-01-25T07:16:56.950Z,80.76
2023-01-25T07:17:59.487Z,80.95
2023-01-25T07:18:57.096Z,80.86
2023-01-25T07:19:56.733Z,80.86
2023-01-25T07:20:57.226Z,80.95
2023-01-25T07:21:56.753Z,80.86
2023-01-25T07:22:57.019Z,80.95
2023-01-25T07:23:57.162Z,80.86
2023-01-25T07:24:57.044Z,81.33
2023-01-25T07:25:57.069Z,80.95
2023-01-25T07:26:57.104Z,80.86
2023-01-25T07:27:57.089Z,81.33
2023-01-25T07:28:57.095Z,80.86
2023-01-25T07:29:57.113Z,80.86
2023-01-25T07:30:56.885Z,80.86
2023-01-25T07:31:57.277Z,80.95
2023-01-25T07:32:57.153Z,80.86
2023-01-25T07:33:56.915Z,80.86
2023-01-25T07:34:57.517Z,80.86
2023-01-25T07:35:57.218Z,81.05
2023-01-25T07:36:57.211Z,81.33
2023-01-25T07:37:57.221Z,80.86
2023-01-25T07:38:57.275Z,81.14
2023-01-25T07:39:57.247Z,80.86
2023-01-25T07:40:57.264Z,80.86
2023-01-25T07:41:57.007Z,81.24
2023-01-25T07:42:57.329Z,81.14
2023-01-25T07:43:57.316Z,81.14
2023-01-25T07:44:57.060Z,81.24
2023-01-25T07:45:57.322Z,80.86
2023-01-25T07:46:57.343Z,80.86
2023-01-25T07:47:57.354Z,81.24
2023-01-25T07:48:57.576Z,81.24
2023-01-25T07:49:57.381Z,81.05
2023-01-25T07:50:57.167Z,80.76
2023-01-25T07:51:57.408Z,80.86
2023-01-25T07:52:57.163Z,81.24
2023-01-25T07:53:57.444Z,81.33
2023-01-25T07:54:57.441Z,81.14
2023-01-25T07:55:57.453Z,80.86
2023-01-25T07:56:57.470Z,81.24
2023-01-25T07:57:57.510Z,81.33
2023-01-25T07:58:57.534Z,81.14
2023-01-25T07:59:57.249Z,81.14
2023-01-25T08:00:57.525Z,81.05
2023-01-25T08:01:57.542Z,81.43
2023-01-25T08:02:57.556Z,80.86
2023-01-25T08:03:57.338Z,80.86
2023-01-25T08:04:57.317Z,81.24
2023-01-25T08:05:57.676Z,80.86
2023-01-25T08:06:57.643Z,80.86
2023-01-25T08:07:57.633Z,81.33
2023-01-25T08:08:57.696Z,81.33
2023-01-25T08:09:57.636Z,81.14
2023-01-25T08:10:57.674Z,81.33
2023-01-25T08:11:57.669Z,81.33
2023-01-25T08:12:57.699Z,80.95
2023-01-25T08:13:57.715Z,80.86
2023-01-25T08:14:57.763Z,80.95
2023-01-25T08:15:57.744Z,81.24
2023-01-25T08:16:57.739Z,81.14
2023-01-25T08:17:57.751Z,80.95
2023-01-25T08:18:57.763Z,81.33
2023-01-25T08:19:57.781Z,80.86
2023-01-25T08:20:57.787Z,80.86
2023-01-25T08:21:57.832Z,81.33
2023-01-25T08:22:57.595Z,81.33
2023-01-25T08:23:57.916Z,81.33
2023-01-25T08:24:57.845Z,81.24
2023-01-25T08:25:57.861Z,81.05
2023-01-25T08:26:57.609Z,80.95
2023-01-25T08:27:58.099Z,81.33
2023-01-25T08:28:58.085Z,81.33
2023-01-25T08:29:57.949Z,81.33
2023-01-25T08:31:00.086Z,81.24
2023-01-25T08:31:58.021Z,81.33
2023-01-25T08:32:57.944Z,81.05
2023-01-25T08:33:57.983Z,81.05
2023-01-25T08:34:58.114Z,80.95
2023-01-25T08:35:58.000Z,81.24
2023-01-25T08:36:58.023Z,80.86
2023-01-25T08:37:58.011Z,81.33
2023-01-25T08:38:58.092Z,81.14
2023-01-25T08:39:58.054Z,80.86
2023-01-25T08:40:58.055Z,81.14
2023-01-25T08:41:58.061Z,81.43
2023-01-25T08:42:58.100Z,80.86
2023-01-25T08:43:58.121Z,80.95
2023-01-25T08:44:58.104Z,80.86
2023-01-25T08:45:58.158Z,81.33
2023-01-25T08:46:58.167Z,80.86
2023-01-25T08:47:58.149Z,81.14
2023-01-25T08:48:58.211Z,80.86
2023-01-25T08:49:58.174Z,81.33
2023-01-25T08:50:58.195Z,80.95
2023-01-25T08:51:58.230Z,80.86
2023-01-25T08:52:58.220Z,81.33
2023-01-25T08:53:58.233Z,81.33
2023-01-25T08:54:58.265Z,80.86
2023-01-25T08:55:58.255Z,80.86
2023-01-25T08:56:58.271Z,80.95
2023-01-25T08:57:59.888Z,81.14
2023-01-25T08:58:58.288Z,80.95
2023-01-25T08:59:58.307Z,80.95
2023-01-25T09:00:58.317Z,80.86
2023-01-25T09:01:58.243Z,81.05
2023-01-25T09:02:58.367Z,80.95
2023-01-25T09:03:58.244Z,81.33
2023-01-25T09:04:58.371Z,80.86
2023-01-25T09:05:58.392Z,81.33
2023-01-25T09:06:58.427Z,81.33
2023-01-25T09:07:58.418Z,81.33
2023-01-25T09:08:58.426Z,81.05
2023-01-25T09:09:58.432Z,80.86
2023-01-25T09:10:58.587Z,81.33
2023-01-25T09:11:58.465Z,80.86
2023-01-25T09:12:58.497Z,81.14
2023-01-25T09:13:58.503Z,81.33
2023-01-25T09:14:58.682Z,80.86
2023-01-25T09:15:58.257Z,81.33
2023-01-25T09:16:58.548Z,80.86
2023-01-25T09:17:58.545Z,80.95
2023-01-25T09:18:58.650Z,80.86
2023-01-25T09:19:58.584Z,81.33
2023-01-25T09:20:58.607Z,81.05
2023-01-25T09:21:58.376Z,81.05
2023-01-25T09:22:58.630Z,80.86
2023-01-25T09:24:14.211Z,80.95
2023-01-25T09:24:58.643Z,80.86
2023-01-25T09:25:58.658Z,81.33
2023-01-25T09:27:02.667Z,81.43
2023-01-25T09:27:58.699Z,80.95
2023-01-25T09:28:58.704Z,80.95
2023-01-25T09:30:08.605Z,81.14
2023-01-25T09:31:23.709Z,80.95
